Edgar Springs, Missouri
Current Conditions -  °F | °C
As of 12:58 PM on Monday 20 Oct 2014 (Local Time) from KTBN Reporting Station
Clear Clear  
Wind Chill: 72°   Ceiling: Unl
Heat Index: 72°   Visibility: 10mi
Dew Point: 57°   Wind: 8mph
Humidity: 59%   Direction: 270°W
Pressure: 30.02"   Gusts: NA
Location:  37.7°N, 91.87°W
Report Text: KTBN 201758Z AUTO 27007KT 10SM CLR 22/14 A3002 RMK AO2 SLP164 T02220138 10222 20119 57011
Loading
Personal Weather Stations






























Interactive Weather Map
Tropical Storm Tracking
New forecast layout! Learn more

10-Day Weather Forecast

Advertisements
Track Severe Weather on mobile